createdAt,value
2023-01-01T00:01:26.899Z,14.10
2023-01-01T00:03:54.187Z,13.90
2023-01-01T00:06:20.880Z,13.80
2023-01-01T00:08:47.800Z,13.80
2023-01-01T00:11:14.699Z,13.80
2023-01-01T00:13:41.949Z,13.80
2023-01-01T00:16:09.469Z,13.90
2023-01-01T00:18:36.603Z,13.90
2023-01-01T00:21:04.081Z,13.90
2023-01-01T00:23:30.666Z,13.90
2023-01-01T00:25:57.576Z,13.90
2023-01-01T00:28:25.334Z,13.90
2023-01-01T00:30:51.839Z,14.00
2023-01-01T00:33:18.398Z,14.00
2023-01-01T00:35:45.120Z,14.00
2023-01-01T00:38:11.691Z,13.90
2023-01-01T00:40:38.268Z,13.90
2023-01-01T00:43:04.758Z,13.90
2023-01-01T00:45:31.734Z,13.90
2023-01-01T00:47:58.343Z,14.00
2023-01-01T00:50:24.849Z,14.00
2023-01-01T00:52:51.488Z,13.90
2023-01-01T00:55:18.156Z,13.80
2023-01-01T00:57:44.796Z,13.80
2023-01-01T01:00:11.717Z,13.80
2023-01-01T01:02:38.412Z,13.70
2023-01-01T01:05:05.925Z,13.80
2023-01-01T01:07:36.283Z,13.80
2023-01-01T01:10:02.902Z,13.70
2023-01-01T01:12:29.581Z,13.70
2023-01-01T01:14:56.239Z,13.70
2023-01-01T01:17:22.846Z,13.60
2023-01-01T01:19:49.384Z,13.60
2023-01-01T01:22:15.899Z,13.60
2023-01-01T01:24:42.443Z,13.60
2023-01-01T01:27:08.994Z,13.50
2023-01-01T01:29:35.500Z,13.50
2023-01-01T01:32:02.067Z,13.40
2023-01-01T01:34:28.657Z,13.40
2023-01-01T01:36:55.560Z,13.30
2023-01-01T01:39:22.379Z,13.30
2023-01-01T01:41:49.148Z,13.30
2023-01-01T01:44:34.528Z,13.30
2023-01-01T01:47:02.149Z,13.20
2023-01-01T01:49:30.900Z,13.20
2023-01-01T01:51:58.852Z,13.20
2023-01-01T01:54:27.453Z,13.20
2023-01-01T01:56:53.978Z,13.10
2023-01-01T01:59:22.446Z,13.10
2023-01-01T02:01:49.062Z,13.10
2023-01-01T02:04:16.843Z,13.20
2023-01-01T02:06:44.341Z,13.20
2023-01-01T02:09:11.100Z,13.10
2023-01-01T02:11:37.616Z,13.00
2023-01-01T02:14:04.320Z,13.10
2023-01-01T02:16:33.988Z,13.00
2023-01-01T02:19:12.075Z,12.90
2023-01-01T02:21:48.839Z,12.90
2023-01-01T02:24:28.029Z,12.90
2023-01-01T02:26:58.749Z,12.90
2023-01-01T02:29:28.590Z,12.80
2023-01-01T02:32:00.913Z,12.90
2023-01-01T02:34:29.667Z,12.90
2023-01-01T02:36:57.695Z,12.90
2023-01-01T02:39:26.617Z,12.80
2023-01-01T02:41:54.521Z,12.90
2023-01-01T02:44:22.543Z,12.90
2023-01-01T02:46:49.043Z,12.90
2023-01-01T02:49:15.534Z,12.90
2023-01-01T02:51:49.377Z,12.90
2023-01-01T02:54:18.657Z,12.90
2023-01-01T02:56:54.286Z,12.90
2023-01-01T02:59:59.570Z,12.90
2023-01-01T03:02:50.508Z,12.80
2023-01-01T03:05:33.946Z,12.80
2023-01-01T03:08:17.943Z,12.70
2023-01-01T03:10:55.204Z,12.60
2023-01-01T03:13:36.317Z,12.60
2023-01-01T03:16:12.314Z,12.60
2023-01-01T03:18:41.287Z,12.60
2023-01-01T03:21:09.265Z,12.50
2023-01-01T03:23:40.447Z,12.50
2023-01-01T03:26:11.725Z,12.50
2023-01-01T03:28:46.828Z,12.60
2023-01-01T03:31:15.108Z,12.60
2023-01-01T03:33:44.928Z,12.50
2023-01-01T03:36:14.393Z,12.40
2023-01-01T03:42:13.555Z,12.50
2023-01-01T03:44:52.377Z,12.50
2023-01-01T03:47:19.165Z,12.60
2023-01-01T03:49:45.981Z,12.60
2023-01-01T03:52:31.134Z,12.50
2023-01-01T03:55:00.679Z,12.60
2023-01-01T03:57:33.382Z,12.50
2023-01-01T04:00:17.047Z,12.50
2023-01-01T04:02:55.068Z,12.50
2023-01-01T04:05:22.578Z,12.40
2023-01-01T04:10:18.095Z,12.30
2023-01-01T04:12:48.769Z,12.30
2023-01-01T04:15:19.159Z,12.20
2023-01-01T04:17:49.360Z,12.00
2023-01-01T04:20:18.065Z,12.00
2023-01-01T04:22:44.582Z,12.00
2023-01-01T04:25:11.337Z,12.00
2023-01-01T04:27:38.436Z,11.90
2023-01-01T04:30:05.438Z,11.80
2023-01-01T04:32:31.930Z,11.80
2023-01-01T04:34:58.534Z,11.80
2023-01-01T04:37:25.035Z,11.70
2023-01-01T04:39:51.879Z,11.70
2023-01-01T04:42:18.575Z,11.60
2023-01-01T04:44:45.079Z,11.60
2023-01-01T04:47:11.665Z,11.60
2023-01-01T04:49:38.197Z,11.70
2023-01-01T04:52:04.729Z,11.80
2023-01-01T04:54:31.375Z,11.70
2023-01-01T04:56:57.898Z,11.80
2023-01-01T04:59:24.450Z,11.80
2023-01-01T05:01:51.302Z,11.80
2023-01-01T05:04:17.957Z,11.90
2023-01-01T05:06:44.519Z,11.90
2023-01-01T05:09:11.369Z,11.90
2023-01-01T05:11:37.882Z,12.00
2023-01-01T05:14:04.768Z,12.10
2023-01-01T05:16:43.313Z,12.00
2023-01-01T05:19:10.580Z,12.00
2023-01-01T05:21:38.010Z,12.10
2023-01-01T05:24:09.018Z,12.10
2023-01-01T05:26:40.374Z,12.00
2023-01-01T05:29:13.747Z,12.00
2023-01-01T05:31:42.447Z,11.90
2023-01-01T05:36:38.347Z,11.80
2023-01-01T05:39:06.006Z,11.80
2023-01-01T05:41:36.151Z,11.80
2023-01-01T05:44:03.457Z,11.80
2023-01-01T05:46:29.993Z,11.80
2023-01-01T05:48:56.547Z,11.80
2023-01-01T05:51:24.523Z,11.80
2023-01-01T05:53:51.684Z,11.80
2023-01-01T05:56:18.251Z,11.80
2023-01-01T05:58:45.651Z,11.90
2023-01-01T06:01:13.749Z,11.80
2023-01-01T06:03:40.955Z,11.80
2023-01-01T06:06:11.979Z,11.80
2023-01-01T06:08:38.668Z,11.80
2023-01-01T06:11:06.442Z,11.80
2023-01-01T06:13:33.053Z,11.80
2023-01-01T06:16:00.515Z,11.80
2023-01-01T06:18:29.274Z,11.90
2023-01-01T06:20:55.797Z,11.80
2023-01-01T06:23:22.283Z,11.80
2023-01-01T06:25:48.798Z,11.70
2023-01-01T06:28:15.295Z,11.70
2023-01-01T06:30:41.875Z,11.60
2023-01-01T06:33:08.391Z,11.50
2023-01-01T06:35:35.025Z,11.60
2023-01-01T06:38:01.638Z,11.60
2023-01-01T06:40:28.124Z,11.50
2023-01-01T06:42:54.634Z,11.60
2023-01-01T06:45:21.132Z,11.70
2023-01-01T06:47:47.663Z,11.80
2023-01-01T06:50:14.242Z,11.80
2023-01-01T06:52:40.743Z,11.80
2023-01-01T06:55:07.551Z,11.80
2023-01-01T06:57:34.664Z,11.80
2023-01-01T07:00:01.177Z,11.80
2023-01-01T07:02:27.925Z,11.90
2023-01-01T07:04:54.526Z,11.80
2023-01-01T07:07:21.012Z,11.90
2023-01-01T07:09:47.583Z,11.90
2023-01-01T07:12:14.078Z,11.90
2023-01-01T07:14:40.615Z,11.80
2023-01-01T07:17:07.139Z,11.70
2023-01-01T07:19:33.679Z,11.80
2023-01-01T07:22:00.212Z,11.80
2023-01-01T07:24:26.789Z,11.90
2023-01-01T07:26:53.295Z,11.90
2023-01-01T07:29:19.867Z,12.00
2023-01-01T07:31:46.417Z,12.00
2023-01-01T07:34:14.373Z,12.00
2023-01-01T07:36:41.344Z,12.00
2023-01-01T07:39:07.952Z,11.90
2023-01-01T07:41:34.646Z,11.90
2023-01-01T07:44:01.186Z,12.00
2023-01-01T07:46:27.836Z,12.10
2023-01-01T07:48:54.447Z,12.10
2023-01-01T07:51:21.061Z,12.10
2023-01-01T07:53:47.653Z,12.20
2023-01-01T07:56:14.186Z,12.30
2023-01-01T07:58:41.231Z,12.30
2023-01-01T08:01:09.636Z,12.30
2023-01-01T08:03:36.224Z,12.40
2023-01-01T08:06:06.392Z,12.30
2023-01-01T08:08:32.915Z,12.30
2023-01-01T08:11:04.143Z,12.30
2023-01-01T08:13:30.940Z,12.30
2023-01-01T08:15:58.071Z,12.30
2023-01-01T08:18:24.609Z,12.30
2023-01-01T08:20:51.113Z,12.30
2023-01-01T08:23:17.644Z,12.30
2023-01-01T08:25:44.159Z,12.40
2023-01-01T08:28:10.691Z,12.40
2023-01-01T08:30:37.210Z,12.50
2023-01-01T08:33:03.790Z,12.50
2023-01-01T08:35:30.784Z,12.60
2023-01-01T08:37:57.337Z,12.60
2023-01-01T08:40:23.911Z,12.60
2023-01-01T08:42:50.428Z,12.60
2023-01-01T08:45:16.995Z,12.60
2023-01-01T08:47:43.555Z,12.70
2023-01-01T08:50:10.123Z,12.60
2023-01-01T08:52:36.632Z,12.70
2023-01-01T08:55:03.262Z,12.70
2023-01-01T08:57:30.782Z,12.80
2023-01-01T08:59:57.576Z,12.80
2023-01-01T09:02:24.275Z,12.80
2023-01-01T09:04:51.256Z,12.80
2023-01-01T09:07:17.805Z,12.90
2023-01-01T09:09:44.315Z,12.90
2023-01-01T09:12:13.447Z,12.90
2023-01-01T09:14:40.125Z,12.90
2023-01-01T09:17:06.673Z,12.90
2023-01-01T09:19:33.209Z,13.00
2023-01-01T09:21:59.786Z,13.00
2023-01-01T09:24:26.458Z,13.00
2023-01-01T09:26:52.957Z,13.00
2023-01-01T09:29:20.813Z,13.00
2023-01-01T09:31:48.283Z,13.00
2023-01-01T09:34:15.347Z,13.10
2023-01-01T09:36:42.021Z,13.10
2023-01-01T09:39:10.734Z,13.20
2023-01-01T09:41:46.470Z,13.40
2023-01-01T09:44:15.969Z,13.40
2023-01-01T09:46:42.512Z,13.50
2023-01-01T09:49:15.622Z,13.60
2023-01-01T09:51:48.952Z,13.60
2023-01-01T09:54:25.682Z,13.60
2023-01-01T09:56:55.521Z,13.60
2023-01-01T09:59:24.421Z,13.70
2023-01-01T10:02:09.734Z,13.70
2023-01-01T10:04:55.292Z,13.70
2023-01-01T10:07:32.649Z,13.70
2023-01-01T10:10:01.975Z,13.80
2023-01-01T10:12:48.700Z,13.70
2023-01-01T10:15:22.587Z,13.80
2023-01-01T10:17:51.684Z,13.80
2023-01-01T10:20:27.897Z,13.80
2023-01-01T10:22:57.858Z,13.90
2023-01-01T10:25:29.397Z,13.90
2023-01-01T10:28:00.331Z,13.90
2023-01-01T10:30:27.906Z,13.90
2023-01-01T10:32:55.277Z,13.90
2023-01-01T10:35:42.073Z,13.90
2023-01-01T10:38:14.983Z,14.00
2023-01-01T10:40:41.582Z,14.00
2023-01-01T10:43:10.514Z,14.00
2023-01-01T10:45:44.772Z,14.10
2023-01-01T10:48:14.370Z,14.10
2023-01-01T10:50:42.240Z,14.20
2023-01-01T10:53:19.921Z,14.30
2023-01-01T10:55:50.261Z,14.30
2023-01-01T10:58:27.649Z,14.30
2023-01-01T11:00:58.310Z,14.30
2023-01-01T11:03:24.943Z,14.40
2023-01-01T11:06:09.733Z,14.40
2023-01-01T11:08:37.928Z,14.40
2023-01-01T11:11:04.777Z,14.40
2023-01-01T11:13:32.145Z,14.40
2023-01-01T11:15:59.326Z,14.40
2023-01-01T11:18:35.750Z,14.30
2023-01-01T11:21:04.079Z,14.30
2023-01-01T11:23:33.923Z,14.20
2023-01-01T11:26:12.726Z,14.20
2023-01-01T11:28:39.744Z,14.20
2023-01-01T11:31:24.153Z,14.10
2023-01-01T11:33:52.701Z,14.20
2023-01-01T11:36:35.623Z,14.20
2023-01-01T11:39:17.437Z,14.20
2023-01-01T11:41:46.050Z,14.20
2023-01-01T11:44:13.723Z,14.20
2023-01-01T11:46:40.303Z,14.20
2023-01-01T11:49:14.248Z,14.20
2023-01-01T11:51:40.865Z,14.20
2023-01-01T11:54:19.385Z,14.20
2023-01-01T11:56:46.547Z,14.30
2023-01-01T11:59:16.015Z,14.30
2023-01-01T12:02:03.323Z,14.30
2023-01-01T12:04:38.122Z,14.30
2023-01-01T12:07:06.075Z,14.40
2023-01-01T12:09:51.481Z,14.30
2023-01-01T12:12:33.375Z,14.20
2023-01-01T12:15:18.658Z,14.10
2023-01-01T12:17:51.925Z,14.10
2023-01-01T12:20:21.413Z,14.10
2023-01-01T12:22:48.160Z,14.10
2023-01-01T12:25:16.133Z,14.10
2023-01-01T12:27:54.597Z,14.10
2023-01-01T12:30:22.441Z,14.10
2023-01-01T12:32:54.909Z,14.00
2023-01-01T12:35:40.365Z,14.10
2023-01-01T12:38:06.915Z,14.10
2023-01-01T12:40:44.245Z,14.10
2023-01-01T12:43:12.067Z,14.20
2023-01-01T12:45:49.075Z,14.30
2023-01-01T12:48:21.631Z,14.20
2023-01-01T12:51:04.824Z,14.20
2023-01-01T12:53:37.725Z,14.10
2023-01-01T12:56:13.412Z,14.10
2023-01-01T12:59:03.031Z,14.10
2023-01-01T13:01:34.987Z,14.10
2023-01-01T13:04:12.067Z,14.10
2023-01-01T13:06:50.219Z,14.20
2023-01-01T13:09:21.601Z,14.20
2023-01-01T13:11:50.928Z,14.20
2023-01-01T13:14:17.437Z,14.10
2023-01-01T13:16:49.566Z,14.20
2023-01-01T13:19:32.652Z,14.20
2023-01-01T13:22:00.131Z,14.20
2023-01-01T13:24:27.218Z,14.20
2023-01-01T13:26:54.051Z,14.10
2023-01-01T13:29:20.637Z,14.10
2023-01-01T13:31:47.194Z,14.00
2023-01-01T13:34:32.508Z,14.00
2023-01-01T13:37:11.215Z,14.10
2023-01-01T13:39:50.965Z,14.00
2023-01-01T13:42:36.250Z,14.00
2023-01-01T13:45:02.773Z,13.90
2023-01-01T13:47:39.498Z,13.80
2023-01-01T13:50:14.781Z,13.80
2023-01-01T13:52:47.455Z,13.70
2023-01-01T13:55:32.845Z,13.70
2023-01-01T13:58:07.715Z,13.70
2023-01-01T14:00:50.112Z,13.80
2023-01-01T14:03:17.968Z,13.80
2023-01-01T14:06:04.777Z,13.60
2023-01-01T14:08:33.030Z,13.60
2023-01-01T14:11:02.636Z,13.60
2023-01-01T14:13:30.338Z,13.70
2023-01-01T14:16:01.505Z,13.60
2023-01-01T14:18:42.248Z,13.50
2023-01-01T14:21:29.378Z,13.60
2023-01-01T14:23:57.537Z,13.60
2023-01-01T14:26:26.093Z,13.60
2023-01-01T14:28:56.186Z,13.50
2023-01-01T14:31:24.613Z,13.40
2023-01-01T14:33:51.147Z,13.40
2023-01-01T14:36:27.706Z,13.30
2023-01-01T14:39:00.185Z,13.30
2023-01-01T14:41:32.633Z,13.30
2023-01-01T14:44:07.240Z,13.30
2023-01-01T14:46:34.025Z,13.20
2023-01-01T14:49:02.987Z,13.10
2023-01-01T14:51:30.512Z,13.10
2023-01-01T14:54:02.026Z,13.10
2023-01-01T14:56:30.579Z,13.00
2023-01-01T14:59:17.399Z,12.90
2023-01-01T15:01:44.140Z,12.80
2023-01-01T15:04:26.134Z,12.80
2023-01-01T15:07:00.204Z,12.80
2023-01-01T15:12:20.302Z,12.60
2023-01-01T15:14:48.107Z,12.60
2023-01-01T15:17:15.780Z,12.60
2023-01-01T15:19:43.935Z,12.70
2023-01-01T15:22:11.375Z,12.70
2023-01-01T15:24:38.415Z,12.60
2023-01-01T15:27:06.566Z,12.50
2023-01-01T15:29:35.148Z,12.60
2023-01-01T15:32:03.232Z,12.60
2023-01-01T15:34:34.715Z,12.60
2023-01-01T15:37:14.765Z,12.50
2023-01-01T15:39:49.622Z,12.50
2023-01-01T15:42:34.428Z,12.50
2023-01-01T15:45:10.092Z,12.50
2023-01-01T15:47:38.291Z,12.40
2023-01-01T15:50:09.015Z,12.40
2023-01-01T15:52:35.915Z,12.30
2023-01-01T15:55:02.567Z,12.30
2023-01-01T15:57:29.212Z,12.30
2023-01-01T15:59:55.949Z,12.20
2023-01-01T16:02:26.266Z,12.20
2023-01-01T16:04:52.906Z,12.20
2023-01-01T16:07:23.121Z,12.10
2023-01-01T16:09:57.047Z,12.10
2023-01-01T16:12:24.463Z,12.00
2023-01-01T16:14:52.108Z,12.00
2023-01-01T16:17:19.994Z,11.90
2023-01-01T16:19:47.441Z,11.80
2023-01-01T16:22:15.579Z,11.70
2023-01-01T16:24:43.107Z,11.60
2023-01-01T16:27:09.833Z,11.50
2023-01-01T16:29:36.515Z,11.50
2023-01-01T16:32:03.315Z,11.40
2023-01-01T16:34:29.828Z,11.40
2023-01-01T16:36:56.357Z,11.30
2023-01-01T16:39:22.955Z,11.30
2023-01-01T16:41:49.467Z,11.30
2023-01-01T16:44:17.147Z,11.30
2023-01-01T16:46:44.108Z,11.30
2023-01-01T16:49:10.693Z,11.30
2023-01-01T16:51:40.798Z,11.30
2023-01-01T16:54:09.733Z,11.30
2023-01-01T16:56:36.266Z,11.40
2023-01-01T16:59:03.823Z,11.40
2023-01-01T17:01:30.670Z,11.40
2023-01-01T17:03:57.531Z,11.50
2023-01-01T17:06:24.064Z,11.50
2023-01-01T17:08:50.759Z,11.50
2023-01-01T17:11:18.073Z,11.60
2023-01-01T17:13:45.297Z,11.70
2023-01-01T17:16:12.306Z,11.70
2023-01-01T17:19:13.183Z,11.80
2023-01-01T17:21:25.722Z,11.80
2023-01-01T17:23:53.282Z,11.70
2023-01-01T17:26:21.065Z,11.60
2023-01-01T17:28:48.456Z,11.60
2023-01-01T17:31:16.233Z,11.50
2023-01-01T17:33:42.847Z,11.40
2023-01-01T17:36:09.853Z,11.20
2023-01-01T17:38:36.795Z,11.10
2023-01-01T17:41:07.543Z,11.10
2023-01-01T17:43:35.011Z,11.10
2023-01-01T17:46:16.930Z,11.10
2023-01-01T17:48:44.054Z,11.10
2023-01-01T17:51:11.186Z,11.10
2023-01-01T17:53:41.117Z,11.10
2023-01-01T17:56:08.069Z,11.10
2023-01-01T17:58:35.733Z,11.10
2023-01-01T18:01:08.366Z,11.10
2023-01-01T18:03:34.987Z,11.00
2023-01-01T18:06:01.515Z,11.00
2023-01-01T18:08:29.015Z,11.10
2023-01-01T18:10:55.999Z,11.00
2023-01-01T18:13:22.587Z,11.00
2023-01-01T18:15:49.401Z,11.00
2023-01-01T18:18:16.257Z,11.00
2023-01-01T18:20:42.816Z,11.00
2023-01-01T18:23:09.314Z,10.90
2023-01-01T18:25:35.982Z,10.90
2023-01-01T18:28:02.654Z,10.80
2023-01-01T18:30:29.245Z,10.80
2023-01-01T18:32:55.814Z,10.80
2023-01-01T18:35:22.327Z,10.70
2023-01-01T18:37:48.890Z,10.70
2023-01-01T18:40:16.696Z,10.70
2023-01-01T18:42:43.163Z,10.70
2023-01-01T18:45:15.063Z,10.60
2023-01-01T18:47:41.617Z,10.60
2023-01-01T18:50:15.315Z,10.50
2023-01-01T18:52:41.832Z,10.50
2023-01-01T18:55:08.366Z,10.50
2023-01-01T18:57:35.027Z,10.50
2023-01-01T19:00:18.707Z,10.50
2023-01-01T19:02:47.982Z,10.50
2023-01-01T19:05:14.712Z,10.50
2023-01-01T19:07:41.280Z,10.50
2023-01-01T19:10:12.261Z,10.50
2023-01-01T19:12:38.951Z,10.50
2023-01-01T19:15:16.309Z,10.40
2023-01-01T19:17:42.824Z,10.40
2023-01-01T19:20:14.010Z,10.40
2023-01-01T19:22:40.510Z,10.40
2023-01-01T19:25:30.288Z,10.40
2023-01-01T19:27:56.850Z,10.40
2023-01-01T19:30:23.434Z,10.40
2023-01-01T19:32:50.027Z,10.30
2023-01-01T19:35:16.827Z,10.30
2023-01-01T19:37:43.629Z,10.30
2023-01-01T19:40:11.443Z,10.20
2023-01-01T19:42:37.971Z,10.30
2023-01-01T19:45:06.969Z,10.20
2023-01-01T19:47:33.467Z,10.20
2023-01-01T19:50:00.168Z,10.20
2023-01-01T19:52:26.807Z,10.20
2023-01-01T19:54:53.327Z,10.20
2023-01-01T19:57:20.821Z,10.20
2023-01-01T19:59:47.390Z,10.20
2023-01-01T20:05:00.533Z,10.30
2023-01-01T20:07:27.178Z,10.40
2023-01-01T20:09:53.705Z,10.60
2023-01-01T20:12:20.278Z,10.70
2023-01-01T20:14:46.817Z,10.80
2023-01-01T20:17:14.622Z,10.90
2023-01-01T20:19:42.388Z,11.00
2023-01-01T20:22:11.626Z,11.00
2023-01-01T20:24:39.279Z,11.00
2023-01-01T20:27:05.795Z,11.10
2023-01-01T20:29:34.035Z,11.20
2023-01-01T20:32:00.715Z,11.20
2023-01-01T20:34:27.506Z,11.20
2023-01-01T20:37:12.718Z,11.20
2023-01-01T20:39:39.216Z,11.20
2023-01-01T20:42:05.913Z,11.20
2023-01-01T20:44:32.474Z,11.20
2023-01-01T20:46:59.073Z,11.30
2023-01-01T20:49:25.587Z,11.20
2023-01-01T20:51:52.877Z,11.20
2023-01-01T20:54:20.178Z,11.20
2023-01-01T20:56:46.800Z,11.20
2023-01-01T20:59:34.001Z,11.10
2023-01-01T21:02:02.358Z,11.10
2023-01-01T21:04:29.232Z,11.10
2023-01-01T21:07:04.445Z,11.10
2023-01-01T21:09:36.039Z,11.10
2023-01-01T21:12:07.416Z,11.10
2023-01-01T21:14:34.428Z,11.00
2023-01-01T21:17:05.437Z,11.00
2023-01-01T21:19:32.255Z,10.90
2023-01-01T21:21:58.824Z,10.80
2023-01-01T21:24:27.404Z,10.80
2023-01-01T21:26:55.387Z,10.70
2023-01-01T21:29:24.046Z,10.60
2023-01-01T21:31:51.734Z,10.60
2023-01-01T21:34:23.387Z,10.60
2023-01-01T21:36:50.115Z,10.50
2023-01-01T21:39:18.759Z,10.40
2023-01-01T21:41:45.275Z,10.30
2023-01-01T21:44:14.274Z,10.20
2023-01-01T21:46:46.903Z,10.10
2023-01-01T21:49:32.437Z,10.00
2023-01-01T21:52:00.745Z,10.00
2023-01-01T21:54:34.578Z,10.00
2023-01-01T21:57:01.825Z,9.90
2023-01-01T21:59:39.681Z,9.90
2023-01-01T22:02:06.876Z,9.80
2023-01-01T22:04:39.303Z,9.70
2023-01-01T22:07:30.851Z,9.60
2023-01-01T22:09:56.394Z,9.50
2023-01-01T22:12:24.500Z,9.40
2023-01-01T22:14:52.245Z,9.40
2023-01-01T22:17:23.631Z,9.30
2023-01-01T22:19:50.727Z,9.20
2023-01-01T22:22:18.339Z,9.20
2023-01-01T22:24:47.055Z,9.20
2023-01-01T22:27:13.552Z,9.10
2023-01-01T22:29:40.237Z,9.10
2023-01-01T22:32:16.982Z,9.10
2023-01-01T22:34:43.534Z,9.10
2023-01-01T22:37:20.621Z,9.10
2023-01-01T22:39:47.732Z,9.10
2023-01-01T22:42:16.786Z,9.10
2023-01-01T22:44:44.346Z,9.10
2023-01-01T22:47:17.227Z,9.10
2023-01-01T22:49:51.401Z,9.10
2023-01-01T22:52:18.238Z,9.00
2023-01-01T22:54:45.293Z,9.00
2023-01-01T22:57:14.441Z,9.00
2023-01-01T22:59:41.004Z,9.00
2023-01-01T23:02:07.985Z,9.00
2023-01-01T23:04:37.167Z,9.00
2023-01-01T23:07:06.788Z,9.00
2023-01-01T23:09:35.033Z,8.90
2023-01-01T23:12:01.611Z,9.00
2023-01-01T23:14:46.982Z,9.00
2023-01-01T23:17:14.069Z,9.00
2023-01-01T23:19:40.940Z,9.00
2023-01-01T23:22:07.545Z,9.10
2023-01-01T23:24:34.362Z,9.10
2023-01-01T23:27:01.064Z,9.10
2023-01-01T23:29:29.936Z,9.10
2023-01-01T23:31:56.831Z,9.20
2023-01-01T23:34:23.802Z,9.20
2023-01-01T23:36:54.482Z,9.30
2023-01-01T23:39:21.188Z,9.40
2023-01-01T23:41:51.011Z,9.60
2023-01-01T23:44:17.685Z,9.70
2023-01-01T23:46:44.909Z,9.80
2023-01-01T23:49:12.113Z,10.00
2023-01-01T23:51:39.772Z,10.20
2023-01-01T23:54:06.339Z,10.30
2023-01-01T23:56:32.935Z,10.50
2023-01-01T23:58:59.876Z,10.60
